Flight Track Log - Related Links

Times and Time Zones

All times are in EST time to prevent confusion due to time zone crossing. See the LOF3332 flight status page for this flight to view local times or setup timezone preferences in your user account.

Time Position Orientation Groundspeed Altitude Reporting Facility
EST Latitude Longitude Course Direction KTS MPH feet Rate Location/Type
Fri 01:41:00 PM 39.8829 -76.9389 204° Southwest  Level Estimated
Fri 01:41:26 PM 40.1000 -77.0667 235° Southwest 270 311 11,000  Level Potomac TRACON
Fri 01:42:00 PM 39.8209 -76.9739 203° Southwest  Level Estimated
Fri 01:42:26 PM 40.0167 -77.1167 205° Southwest 348 400 11,000  Level Potomac TRACON
Fri 01:43:26 PM 39.9333 -77.1500 197° South 353 406 11,000 -421 Level Potomac TRACON
Fri 01:44:20 PM 39.8500 -77.1833 197° South 344 396 10,200 -522 Descending Potomac TRACON
Fri 01:45:21 PM 39.7667 -77.2500 212° Southwest 328 377 10,000 -94 Descending Potomac TRACON
Fri 01:46:27 PM 39.6833 -77.3000 205° Southwest 324 373 10,000 -190 Level Potomac TRACON
Fri 01:47:27 PM 39.6000 -77.3333 197° South 289 333 9,600 -1,000 Descending Potomac TRACON
Fri 01:48:27 PM 39.5333 -77.3500 191° South 272 313 8,000 -1,300 Descending Potomac TRACON
Fri 01:49:27 PM 39.4500 -77.3500 180° South 260 299 7,000 -744 Descending Potomac TRACON
Fri 01:50:28 PM 39.3833 -77.3667 191° South 259 298 6,500 -942 Descending Potomac TRACON
Fri 01:51:28 PM 39.3167 -77.3667 180° South 250 288 5,100 -850 Descending Potomac TRACON
Fri 01:52:28 PM 39.2500 -77.3667 180° South 247 284 4,800 -550 Descending Potomac TRACON
Fri 01:53:28 PM 39.1833 -77.3500 169° South 242 278 4,000 -381 Descending Potomac TRACON
Fri 01:54:34 PM 39.1000 -77.3500 180° South 240 276 4,000  Level Potomac TRACON
Fri 01:55:28 PM 39.0500 -77.3500 180° South 244 281 4,000 -209 Level Potomac TRACON
Fri 01:56:29 PM 38.9833 -77.3500 180° South 242 278 3,600 -496 Descending Potomac TRACON
Fri 01:57:29 PM 38.9000 -77.3500 180° South 246 283 3,000 -350 Descending Potomac TRACON
Fri 01:58:29 PM 38.8333 -77.3667 191° South 237 273 2,900 -500 Descending Potomac TRACON
Fri 01:59:29 PM 38.8333 -77.4333 270° West 220 253 2,000 -650 Descending Potomac TRACON
Fri 02:00:29 PM 38.8667 -77.4333 360° North 136 157 1,600 -600 Descending Potomac TRACON
Fri 02:01:29 PM 38.9000 -77.4333 360° North 128 147 800 -800 Descending Potomac TRACON
Fri 02:03:00 PM 38.9333 -77.4500 191° South  Level FlightAware Approximate

Login

Don't have an account? Register now (free) for customized features, flight alerts, and more!